Banner



Журнал Авиация и Спорт

 

 

Страница пилота

Данные METAR получены с http://aviationweather.gov/adds/metars/
Текст METAR: UUDD 121830Z 18005MPS CAVOK M06/M11 Q1044 R88/190095 NOSIG
Условия на: UUDD (MOSCOW/DOMODEDOV, RU) observed 1830 UTC 12 November 2018
Температура: -6.0°C (21°F)
Точка росы: -11.0°C (12°F) [RH = 68%]
Давление (альтиметр): 30.83 inches Hg (1044.0 mb)
Ветер: from the S (180 degrees) at 12 MPH (10 knots; 5.1 m/s)
Видимость: 6 or more miles (10+ km)
Высота облачности: ceiling and visibility are OK
Облачность: unknown
Погода: no significant weather observed at this time
Прогноз на: UUDD (MOSCOW/DOMODEDOV, RU)
Текст: TAF UUDD 121657Z 1218/1324 16004MPS CAVOK TXM04/1311Z TNM10/1304Z
Период прогноза: 1800 UTC 12 November 2018 to 0600 UTC 13 November 2018
Тип прогноза: FROM: standard forecast or significant change
Ветер: from the SSE (160 degrees) at 9 MPH (8 knots; 4.1 m/s)
Видимость: 6 or more miles 10+ km)
Высота облачности: unknown
Облачность: missing
Погода: no significant weather forecast for this period
Текст: BECMG 1306/1308 18009MPS
Период прогноза: 0600 UTC 13 November 2018 to 0000 UTC 14 November 2018
Тип прогноза: BECOMING: Conditions expected to become as follows by 0800 UTC 13 November 2018
Ветер: from the S (180 degrees) at 20 MPH (17 knots; 8.7 m/s)
Видимость: 6 or more miles 10+ km)
Высота облачности: unknown
Облачность: missing
Погода: no significant weather forecast for this period
Текст METAR: UUWW 121830Z 16006MPS CAVOK M06/M11 Q1043 R19/190042 NOSIG
Условия на: UUWW (MOSCOW/VNUKOVO , RU) observed 1830 UTC 12 November 2018
Температура: -6.0°C (21°F)
Точка росы: -11.0°C (12°F) [RH = 68%]
Давление (альтиметр): 30.80 inches Hg (1043.0 mb)
Ветер: from the SSE (160 degrees) at 14 MPH (12 knots; 6.2 m/s)
Видимость: 6 or more miles (10+ km)
Высота облачности: ceiling and visibility are OK
Облачность: unknown
Погода: no significant weather observed at this time
Прогноз на: UUWW (MOSCOW/VNUKOVO , RU)
Текст: TAF UUWW 121652Z 1218/1318 16004MPS 9999 SCT020 TXM04/1312Z TNM11/1304Z
Период прогноза: 1800 UTC 12 November 2018 to 1800 UTC 13 November 2018
Тип прогноза: FROM: standard forecast or significant change
Ветер: from the SSE (160 degrees) at 9 MPH (8 knots; 4.1 m/s)
Видимость: 6 or more miles 10+ km)
Высота облачности: at least 12,000 feet AGL
Облачность: scattered clouds at 2000 feet AGL
Погода: no significant weather forecast for this period
Текст: TEMPO 1307/1316 17008G13MPS
Период прогноза: 0700 to 1600 UTC 13 November 2018
Тип прогноза: TEMPORARY: The following changes expected for less than half the time period
Ветер: from the S (170 degrees) at 18 MPH (16 knots; 8.2 m/s)
gusting to 29 MPH (25 knots; 12.9 m/s)
Видимость: missing
Высота облачности: unknown
Облачность: missing
Погода: no significant weather forecast for this period
Текст METAR: UUEE 121830Z 17005MPS CAVOK M04/M10 Q1042 R06C/290045 R06R/290051 NOSIG
Условия на: UUEE (MOSCOW/SHEREMET', RU) observed 1830 UTC 12 November 2018
Температура: -4.0°C (25°F)
Точка росы: -10.0°C (14°F) [RH = 63%]
Давление (альтиметр): 30.77 inches Hg (1042.0 mb)
Ветер: from the S (170 degrees) at 12 MPH (10 knots; 5.1 m/s)
Видимость: 6 or more miles (10+ km)
Высота облачности: ceiling and visibility are OK
Облачность: unknown
Погода: no significant weather observed at this time
Прогноз на: UUEE (MOSCOW/SHEREMET', RU)
Текст: TAF UUEE 121700Z 1218/1318 15005MPS CAVOK TXM02/1312Z TNM08/1303Z
Период прогноза: 1800 UTC 12 November 2018 to 0600 UTC 13 November 2018
Тип прогноза: FROM: standard forecast or significant change
Ветер: from the SSE (150 degrees) at 12 MPH (10 knots; 5.1 m/s)
Видимость: 6 or more miles 10+ km)
Высота облачности: unknown
Облачность: missing
Погода: no significant weather forecast for this period
Текст: BECMG 1306/1308 16008G13MPS
Период прогноза: 0600 to 1800 UTC 13 November 2018
Тип прогноза: BECOMING: Conditions expected to become as follows by 0800 UTC 13 November 2018
Ветер: from the SSE (160 degrees) at 18 MPH (16 knots; 8.2 m/s)
gusting to 29 MPH (25 knots; 12.9 m/s)
Видимость: 6 or more miles 10+ km)
Высота облачности: unknown
Облачность: missing
Погода: no significant weather forecast for this period

вернуться на главную